Terminal Aerodrome Forecast
Issued by NWS

Home | Current Version | Previous Version | Graphics & Text | Print | Product List | Glossary On
Versions: 1 2 3 4 5 6 7 8 9 10 11 12 13
674
FTUS43 KICT 142344
TAFRSL
TAF
KRSL 142344Z 1500/1524 33012G18KT P6SM OVC045
     FM150400 33009KT P6SM SCT150
     FM150800 28008KT P6SM FEW250
     FM151400 23008KT P6SM FEW250
     FM151700 23012KT P6SM FEW250=

USA.gov is the U.S. government's official web portal to all federal, state and local government web resources and services.